createdAt,value
2024-02-10T00:00:22.180Z,11.49
2024-02-10T00:02:49.839Z,11.38
2024-02-10T00:05:16.689Z,11.26
2024-02-10T00:07:44.778Z,11.13
2024-02-10T00:10:11.216Z,11.08
2024-02-10T00:12:37.588Z,11.12
2024-02-10T00:15:04.150Z,11.12
2024-02-10T00:17:30.501Z,11.20
2024-02-10T00:19:57.074Z,11.39
2024-02-10T00:22:23.628Z,11.22
2024-02-10T00:24:50.004Z,11.40
2024-02-10T00:27:16.363Z,11.13
2024-02-10T00:29:42.705Z,11.14
2024-02-10T00:32:09.039Z,11.25
2024-02-10T00:34:35.432Z,11.23
2024-02-10T00:37:01.862Z,11.39
2024-02-10T00:39:28.240Z,11.12
2024-02-10T00:41:54.649Z,11.14
2024-02-10T00:44:21.079Z,10.98
2024-02-10T00:46:47.522Z,11.32
2024-02-10T00:49:14.047Z,11.41
2024-02-10T00:51:40.582Z,11.09
2024-02-10T00:54:07.325Z,11.14
2024-02-10T00:56:33.767Z,11.03
2024-02-10T00:59:00.259Z,11.08
2024-02-10T01:01:26.691Z,10.91
2024-02-10T01:03:53.112Z,11.17
2024-02-10T01:06:19.728Z,10.92
2024-02-10T01:08:47.290Z,10.96
2024-02-10T01:11:14.516Z,11.08
2024-02-10T01:13:41.305Z,11.20
2024-02-10T01:16:07.660Z,11.09
2024-02-10T01:18:34.085Z,11.19
2024-02-10T01:21:00.755Z,10.98
2024-02-10T01:23:27.143Z,10.86
2024-02-10T01:25:53.526Z,11.16
2024-02-10T01:28:20.242Z,10.94
2024-02-10T01:30:46.778Z,10.77
2024-02-10T01:33:13.231Z,10.72
2024-02-10T01:35:39.915Z,10.64
2024-02-10T01:38:06.234Z,10.80
2024-02-10T01:40:33.893Z,10.73
2024-02-10T01:43:00.333Z,10.84
2024-02-10T01:45:26.705Z,10.73
2024-02-10T01:47:53.544Z,10.75
2024-02-10T01:50:20.397Z,10.90
2024-02-10T01:52:46.992Z,10.97
2024-02-10T01:55:13.630Z,10.77
2024-02-10T01:57:40.316Z,10.63
2024-02-10T02:00:08.376Z,10.72
2024-02-10T02:02:44.163Z,10.63
2024-02-10T02:05:10.922Z,10.74
2024-02-10T02:07:37.426Z,10.92
2024-02-10T02:10:04.076Z,10.77
2024-02-10T02:12:30.682Z,10.68
2024-02-10T02:14:57.011Z,10.64
2024-02-10T02:17:23.801Z,10.55
2024-02-10T02:19:52.078Z,10.79
2024-02-10T02:22:18.578Z,10.67
2024-02-10T02:24:44.995Z,10.57
2024-02-10T02:27:11.380Z,10.63
2024-02-10T02:29:37.755Z,10.54
2024-02-10T02:32:04.575Z,10.50
2024-02-10T02:34:31.711Z,10.61
2024-02-10T02:36:58.047Z,10.49
2024-02-10T02:39:24.432Z,10.54
2024-02-10T02:41:50.803Z,10.49
2024-02-10T02:44:17.192Z,10.52
2024-02-10T02:46:44.843Z,10.44
2024-02-10T02:49:11.709Z,10.46
2024-02-10T02:51:38.073Z,10.49
2024-02-10T02:54:06.132Z,10.44
2024-02-10T02:56:32.525Z,10.40
2024-02-10T02:58:58.878Z,10.33
2024-02-10T03:01:25.638Z,10.33
2024-02-10T03:03:52.070Z,10.37
2024-02-10T03:06:18.827Z,10.37
2024-02-10T03:08:45.874Z,10.38
2024-02-10T03:11:16.361Z,10.42
2024-02-10T03:13:42.839Z,10.37
2024-02-10T03:16:09.343Z,10.35
2024-02-10T03:18:35.792Z,10.37
2024-02-10T03:21:02.142Z,10.34
2024-02-10T03:23:28.709Z,10.32
2024-02-10T03:25:55.278Z,10.27
2024-02-10T03:28:21.726Z,10.28
2024-02-10T03:30:48.300Z,10.27
2024-02-10T03:33:14.688Z,10.24
2024-02-10T03:35:41.492Z,10.28
2024-02-10T03:38:07.876Z,10.30
2024-02-10T03:40:34.375Z,10.29
2024-02-10T03:43:01.077Z,10.37
2024-02-10T03:45:27.445Z,10.39
2024-02-10T03:48:03.727Z,10.45
2024-02-10T03:50:30.198Z,10.40
2024-02-10T03:52:56.677Z,10.46
2024-02-10T03:55:23.102Z,10.43
2024-02-10T03:57:49.511Z,10.36
2024-02-10T04:00:16.565Z,10.39
2024-02-10T04:02:42.878Z,10.47
2024-02-10T04:05:09.344Z,10.43
2024-02-10T04:07:35.939Z,10.38
2024-02-10T04:10:02.323Z,10.30
2024-02-10T04:12:28.683Z,10.24
2024-02-10T04:14:55.034Z,10.21
2024-02-10T04:17:21.526Z,10.19
2024-02-10T04:19:47.912Z,10.18
2024-02-10T04:22:14.338Z,10.15
2024-02-10T04:24:40.667Z,10.13
2024-02-10T04:27:07.160Z,10.14
2024-02-10T04:29:33.712Z,10.11
2024-02-10T04:32:00.104Z,10.05
2024-02-10T04:34:27.064Z,10.06
2024-02-10T04:36:53.421Z,10.03
2024-02-10T04:39:19.820Z,10.03
2024-02-10T04:41:46.163Z,10.03
2024-02-10T04:44:12.537Z,9.97
2024-02-10T04:46:38.994Z,9.90
2024-02-10T04:49:05.466Z,9.86
2024-02-10T04:51:31.836Z,9.89
2024-02-10T04:53:58.205Z,9.87
2024-02-10T04:56:24.775Z,9.86
2024-02-10T04:58:51.348Z,9.86
2024-02-10T05:01:18.136Z,9.93
2024-02-10T05:03:44.708Z,9.89
2024-02-10T05:06:11.248Z,9.89
2024-02-10T05:08:40.693Z,9.93
2024-02-10T05:11:07.147Z,9.96
2024-02-10T05:13:33.539Z,9.90
2024-02-10T05:15:59.880Z,9.81
2024-02-10T05:18:27.936Z,9.90
2024-02-10T05:20:54.370Z,9.90
2024-02-10T05:23:20.990Z,9.90
2024-02-10T05:25:47.402Z,9.88
2024-02-10T05:28:13.939Z,9.85
2024-02-10T05:30:40.383Z,9.87
2024-02-10T05:33:07.173Z,9.92
2024-02-10T05:35:33.708Z,9.88
2024-02-10T05:38:01.641Z,9.92
2024-02-10T05:40:29.311Z,9.92
2024-02-10T05:42:56.088Z,9.88
2024-02-10T05:45:22.452Z,9.93
2024-02-10T05:47:50.474Z,9.98
2024-02-10T05:50:17.786Z,10.02
2024-02-10T05:52:44.182Z,9.96
2024-02-10T05:55:13.222Z,9.90
2024-02-10T05:57:39.872Z,9.92
2024-02-10T06:00:07.537Z,9.90
2024-02-10T06:02:34.169Z,9.89
2024-02-10T06:05:00.676Z,9.88
2024-02-10T06:07:27.100Z,9.89
2024-02-10T06:09:53.593Z,9.88
2024-02-10T06:12:19.959Z,9.86
2024-02-10T06:14:46.273Z,9.87
2024-02-10T06:17:12.657Z,9.95
2024-02-10T06:19:39.390Z,9.94
2024-02-10T06:22:05.942Z,9.89
2024-02-10T06:24:32.255Z,9.90
2024-02-10T06:26:58.599Z,9.91
2024-02-10T06:29:24.971Z,9.89
2024-02-10T06:31:51.328Z,9.87
2024-02-10T06:34:17.749Z,9.85
2024-02-10T06:36:44.154Z,9.84
2024-02-10T06:39:10.555Z,9.85
2024-02-10T06:41:36.857Z,9.89
2024-02-10T06:44:03.331Z,9.96
2024-02-10T06:46:29.712Z,9.89
2024-02-10T06:48:56.100Z,9.86
2024-02-10T06:51:22.431Z,9.77
2024-02-10T06:53:48.720Z,9.83
2024-02-10T06:56:15.083Z,9.81
2024-02-10T06:58:41.468Z,9.79
2024-02-10T07:01:09.498Z,9.79
2024-02-10T07:03:36.380Z,9.75
2024-02-10T07:06:02.827Z,9.78
2024-02-10T07:08:29.329Z,9.83
2024-02-10T07:10:55.831Z,9.84
2024-02-10T07:13:22.210Z,9.85
2024-02-10T07:15:48.796Z,9.81
2024-02-10T07:18:15.214Z,9.86
2024-02-10T07:20:41.803Z,9.82
2024-02-10T07:23:08.107Z,9.84
2024-02-10T07:25:36.029Z,9.89
2024-02-10T07:28:03.089Z,9.85
2024-02-10T07:30:31.552Z,9.89
2024-02-10T07:32:58.396Z,9.90
2024-02-10T07:35:24.763Z,9.89
2024-02-10T07:37:53.278Z,9.95
2024-02-10T07:40:20.210Z,9.98
2024-02-10T07:42:46.554Z,9.99
2024-02-10T07:45:12.972Z,10.02
2024-02-10T07:47:39.434Z,10.05
2024-02-10T07:50:06.394Z,10.01
2024-02-10T07:52:33.278Z,10.08
2024-02-10T07:54:59.965Z,10.18
2024-02-10T07:57:26.902Z,10.22
2024-02-10T07:59:55.622Z,10.22
2024-02-10T08:02:23.023Z,10.31
2024-02-10T08:04:49.410Z,10.41
2024-02-10T08:07:15.995Z,10.39
2024-02-10T08:09:42.609Z,10.46
2024-02-10T08:12:09.187Z,10.51
2024-02-10T08:14:35.725Z,10.52
2024-02-10T08:17:02.161Z,10.61
2024-02-10T08:19:28.723Z,10.66
2024-02-10T08:21:56.147Z,10.74
2024-02-10T08:24:22.516Z,10.78
2024-02-10T08:26:49.004Z,10.93
2024-02-10T08:29:15.399Z,11.06
2024-02-10T08:31:41.991Z,11.14
2024-02-10T08:34:08.439Z,11.32
2024-02-10T08:36:34.862Z,11.46
2024-02-10T08:39:01.210Z,11.60
2024-02-10T08:41:27.543Z,11.76
2024-02-10T08:43:54.146Z,11.97
2024-02-10T08:46:20.540Z,12.09
2024-02-10T08:48:47.193Z,12.18
2024-02-10T08:51:13.554Z,12.15
2024-02-10T08:53:43.680Z,12.36
2024-02-10T08:56:11.509Z,12.50
2024-02-10T08:58:41.864Z,12.50
2024-02-10T09:01:08.899Z,12.75
2024-02-10T09:03:35.304Z,13.05
2024-02-10T09:06:01.639Z,13.49
2024-02-10T09:08:27.986Z,13.96
2024-02-10T09:10:54.447Z,14.34
2024-02-10T09:13:20.910Z,14.71
2024-02-10T09:15:47.332Z,14.91
2024-02-10T09:18:14.231Z,14.97
2024-02-10T09:20:40.702Z,14.94
2024-02-10T09:23:07.226Z,14.95
2024-02-10T09:25:33.645Z,14.88
2024-02-10T09:28:00.056Z,15.08
2024-02-10T09:30:26.513Z,15.24
2024-02-10T09:32:53.059Z,15.32
2024-02-10T09:35:25.561Z,15.65
2024-02-10T09:37:57.555Z,15.97
2024-02-10T09:40:24.065Z,16.35
2024-02-10T09:42:50.915Z,16.61
2024-02-10T09:45:18.002Z,17.02
2024-02-10T09:47:46.562Z,17.11
2024-02-10T09:50:15.929Z,17.03
2024-02-10T09:52:49.913Z,17.05
2024-02-10T09:55:16.358Z,16.78
2024-02-10T09:57:47.887Z,16.40
2024-02-10T10:00:16.044Z,16.03
2024-02-10T10:02:44.513Z,15.81
2024-02-10T10:05:11.656Z,15.55
2024-02-10T10:07:38.369Z,15.29
2024-02-10T10:10:05.082Z,15.09
2024-02-10T10:12:31.500Z,14.95
2024-02-10T10:14:57.876Z,14.85
2024-02-10T10:17:37.424Z,14.71
2024-02-10T10:20:05.014Z,14.65
2024-02-10T10:22:37.912Z,14.61
2024-02-10T10:25:06.757Z,14.50
2024-02-10T10:27:34.555Z,14.64
2024-02-10T10:30:02.498Z,14.54
2024-02-10T10:32:29.120Z,14.80
2024-02-10T10:34:56.085Z,15.13
2024-02-10T10:37:26.822Z,15.48
2024-02-10T10:39:56.674Z,15.89
2024-02-10T10:42:24.804Z,16.32
2024-02-10T10:44:52.613Z,16.44
2024-02-10T10:47:22.720Z,16.58
2024-02-10T10:49:51.850Z,16.66
2024-02-10T10:52:18.993Z,16.65
2024-02-10T10:54:46.237Z,16.66
2024-02-10T10:57:21.641Z,16.50
2024-02-10T10:59:51.970Z,16.44
2024-02-10T11:02:24.438Z,16.50
2024-02-10T11:05:04.001Z,16.85
2024-02-10T11:07:36.740Z,17.03
2024-02-10T11:10:03.532Z,17.16
2024-02-10T11:12:30.765Z,17.15
2024-02-10T11:14:57.141Z,16.92
2024-02-10T11:17:23.556Z,16.88
2024-02-10T11:19:59.956Z,16.88
2024-02-10T11:22:27.064Z,16.99
2024-02-10T11:24:59.115Z,17.08
2024-02-10T11:27:25.618Z,17.13
2024-02-10T11:29:55.382Z,17.16
2024-02-10T11:32:22.000Z,17.19
2024-02-10T11:34:48.404Z,16.99
2024-02-10T11:37:14.889Z,16.73
2024-02-10T11:39:41.265Z,16.52
2024-02-10T11:42:07.884Z,16.51
2024-02-10T11:44:34.283Z,16.46
2024-02-10T11:47:01.437Z,16.60
2024-02-10T11:49:28.534Z,16.56
2024-02-10T11:51:55.168Z,16.66
2024-02-10T11:54:21.919Z,16.87
2024-02-10T11:56:48.479Z,16.91
2024-02-10T11:59:15.005Z,17.05
2024-02-10T12:01:41.559Z,17.14
2024-02-10T12:04:08.199Z,16.85
2024-02-10T12:06:35.524Z,16.63
2024-02-10T12:09:01.981Z,16.36
2024-02-10T12:11:29.399Z,16.20
2024-02-10T12:13:55.921Z,15.99
2024-02-10T12:16:24.035Z,15.93
2024-02-10T12:18:51.191Z,15.90
2024-02-10T12:21:18.526Z,15.83
2024-02-10T12:23:47.931Z,15.78
2024-02-10T12:26:14.285Z,15.86
2024-02-10T12:28:40.727Z,15.72
2024-02-10T12:31:07.215Z,15.83
2024-02-10T12:33:33.590Z,15.86
2024-02-10T12:36:00.421Z,15.85
2024-02-10T12:38:27.408Z,15.68
2024-02-10T12:40:55.018Z,15.42
2024-02-10T12:43:21.923Z,15.93
2024-02-10T12:45:48.981Z,15.64
2024-02-10T12:48:15.732Z,15.63
2024-02-10T12:50:43.065Z,15.36
2024-02-10T12:53:09.833Z,15.34
2024-02-10T12:55:36.372Z,15.42
2024-02-10T12:58:02.692Z,15.45
2024-02-10T13:00:29.381Z,15.60
2024-02-10T13:02:55.776Z,15.80
2024-02-10T13:05:22.338Z,15.99
2024-02-10T13:07:48.877Z,15.83
2024-02-10T13:10:16.241Z,15.64
2024-02-10T13:12:43.139Z,15.88
2024-02-10T13:15:09.558Z,15.92
2024-02-10T13:17:36.039Z,15.66
2024-02-10T13:20:02.735Z,15.75
2024-02-10T13:22:29.299Z,15.56
2024-02-10T13:24:55.741Z,15.40
2024-02-10T13:27:22.171Z,15.53
2024-02-10T13:29:48.529Z,15.61
2024-02-10T13:32:14.919Z,15.77
2024-02-10T13:34:50.943Z,15.81
2024-02-10T13:37:28.111Z,15.55
2024-02-10T13:39:54.518Z,15.50
2024-02-10T13:42:20.932Z,15.57
2024-02-10T13:44:47.655Z,15.86
2024-02-10T13:47:14.102Z,16.14
2024-02-10T13:49:44.810Z,16.36
2024-02-10T13:52:11.167Z,16.18
2024-02-10T13:54:37.565Z,16.27
2024-02-10T13:57:04.152Z,16.01
2024-02-10T13:59:30.724Z,16.11
2024-02-10T14:01:58.193Z,16.00
2024-02-10T14:04:24.667Z,15.69
2024-02-10T14:06:51.525Z,15.60
2024-02-10T14:09:18.409Z,15.68
2024-02-10T14:11:44.720Z,15.84
2024-02-10T14:14:11.102Z,15.66
2024-02-10T14:16:37.573Z,15.63
2024-02-10T14:19:04.000Z,15.63
2024-02-10T14:21:30.492Z,15.41
2024-02-10T14:23:57.243Z,15.89
2024-02-10T14:26:23.896Z,15.65
2024-02-10T14:28:50.244Z,15.77
2024-02-10T14:31:20.739Z,15.73
2024-02-10T14:33:47.080Z,15.76
2024-02-10T14:36:13.805Z,15.75
2024-02-10T14:38:40.190Z,15.64
2024-02-10T14:41:06.772Z,15.89
2024-02-10T14:43:34.842Z,16.14
2024-02-10T14:46:06.427Z,16.09
2024-02-10T14:48:32.848Z,15.76
2024-02-10T14:50:59.981Z,15.65
2024-02-10T14:53:27.193Z,15.36
2024-02-10T14:55:53.509Z,15.22
2024-02-10T14:58:19.892Z,15.22
2024-02-10T15:00:46.686Z,15.11
2024-02-10T15:03:13.058Z,14.88
2024-02-10T15:05:39.733Z,14.73
2024-02-10T15:08:06.910Z,15.02
2024-02-10T15:10:33.736Z,14.74
2024-02-10T15:13:00.347Z,14.67
2024-02-10T15:15:26.800Z,14.79
2024-02-10T15:17:53.233Z,14.63
2024-02-10T15:20:19.696Z,14.69
2024-02-10T15:22:46.102Z,14.56
2024-02-10T15:25:12.512Z,14.51
2024-02-10T15:27:38.855Z,14.28
2024-02-10T15:30:05.759Z,14.30
2024-02-10T15:32:32.117Z,14.22
2024-02-10T15:35:01.065Z,14.08
2024-02-10T15:37:28.736Z,14.03
2024-02-10T15:39:55.294Z,13.95
2024-02-10T15:42:21.717Z,13.92
2024-02-10T15:44:48.104Z,13.77
2024-02-10T15:47:14.693Z,13.83
2024-02-10T15:49:41.154Z,13.83
2024-02-10T15:52:07.578Z,13.62
2024-02-10T15:54:34.199Z,13.84
2024-02-10T15:57:00.620Z,13.71
2024-02-10T15:59:27.164Z,13.72
2024-02-10T16:01:53.653Z,13.50
2024-02-10T16:04:20.229Z,13.52
2024-02-10T16:06:46.561Z,13.33
2024-02-10T16:09:13.592Z,13.27
2024-02-10T16:11:40.196Z,13.22
2024-02-10T16:14:06.664Z,13.16
2024-02-10T16:16:33.158Z,13.13
2024-02-10T16:18:59.610Z,13.06
2024-02-10T16:21:26.276Z,13.17
2024-02-10T16:23:52.888Z,13.12
2024-02-10T16:26:19.328Z,12.97
2024-02-10T16:28:45.722Z,13.01
2024-02-10T16:31:12.143Z,12.83
2024-02-10T16:33:38.631Z,12.78
2024-02-10T16:36:05.511Z,12.80
2024-02-10T16:38:32.569Z,12.72
2024-02-10T16:40:58.988Z,12.71
2024-02-10T16:43:25.465Z,12.77
2024-02-10T16:45:51.838Z,12.73
2024-02-10T16:48:18.237Z,12.72
2024-02-10T16:50:44.698Z,12.70
2024-02-10T16:53:11.101Z,12.61
2024-02-10T16:55:39.603Z,12.57
2024-02-10T16:58:09.792Z,12.68
2024-02-10T17:00:36.916Z,12.84
2024-02-10T17:03:03.674Z,12.77
2024-02-10T17:05:32.355Z,12.72
2024-02-10T17:07:59.602Z,12.73
2024-02-10T17:10:26.410Z,12.60
2024-02-10T17:12:52.796Z,12.60
2024-02-10T17:15:19.225Z,12.57
2024-02-10T17:17:45.764Z,12.65
2024-02-10T17:20:12.633Z,12.57
2024-02-10T17:22:39.184Z,12.47
2024-02-10T17:25:06.039Z,12.47
2024-02-10T17:27:32.724Z,12.61
2024-02-10T17:29:59.344Z,12.58
2024-02-10T17:32:25.766Z,12.45
2024-02-10T17:34:52.258Z,12.62
2024-02-10T17:37:18.920Z,12.59
2024-02-10T17:39:45.411Z,12.50
2024-02-10T17:42:11.759Z,12.76
2024-02-10T17:44:38.116Z,12.72
2024-02-10T17:47:04.598Z,12.64
2024-02-10T17:49:31.150Z,12.54
2024-02-10T17:51:57.597Z,12.61
2024-02-10T17:54:24.016Z,12.60
2024-02-10T17:56:50.498Z,12.56
2024-02-10T17:59:16.994Z,12.53
2024-02-10T18:01:43.494Z,12.66
2024-02-10T18:04:09.858Z,12.54
2024-02-10T18:06:36.346Z,12.48
2024-02-10T18:09:02.895Z,12.50
2024-02-10T18:11:29.267Z,12.64
2024-02-10T18:13:55.661Z,12.69
2024-02-10T18:16:22.068Z,12.75
2024-02-10T18:18:49.203Z,12.58
2024-02-10T18:21:19.089Z,12.58
2024-02-10T18:23:45.731Z,12.40
2024-02-10T18:26:12.215Z,12.28
2024-02-10T18:28:38.759Z,12.19
2024-02-10T18:31:05.327Z,12.11
2024-02-10T18:33:31.849Z,12.15
2024-02-10T18:35:58.344Z,12.04
2024-02-10T18:38:25.936Z,11.93
2024-02-10T18:40:52.827Z,12.10
2024-02-10T18:43:19.584Z,12.06
2024-02-10T18:45:46.143Z,12.03
2024-02-10T18:48:13.013Z,11.99
2024-02-10T18:50:39.402Z,11.83
2024-02-10T18:53:05.805Z,11.75
2024-02-10T18:55:32.304Z,11.68
2024-02-10T18:57:58.712Z,11.69
2024-02-10T19:00:25.398Z,11.65
2024-02-10T19:02:51.756Z,11.64
2024-02-10T19:05:19.206Z,11.85
2024-02-10T19:07:46.653Z,11.71
2024-02-10T19:10:14.402Z,11.56
2024-02-10T19:12:41.729Z,11.57
2024-02-10T19:15:09.070Z,11.64
2024-02-10T19:17:39.071Z,11.57
2024-02-10T19:20:08.817Z,11.45
2024-02-10T19:22:35.626Z,11.38
2024-02-10T19:25:02.202Z,11.33
2024-02-10T19:27:28.914Z,11.34
2024-02-10T19:29:55.304Z,11.33
2024-02-10T19:32:21.702Z,11.33
2024-02-10T19:34:48.231Z,11.21
2024-02-10T19:37:14.643Z,11.18
2024-02-10T19:39:41.363Z,11.15
2024-02-10T19:42:07.808Z,11.09
2024-02-10T19:44:34.166Z,11.05
2024-02-10T19:47:00.574Z,11.00
2024-02-10T19:49:27.229Z,10.98
2024-02-10T19:51:53.644Z,11.03
2024-02-10T19:54:20.252Z,11.07
2024-02-10T19:56:46.883Z,11.05
2024-02-10T19:59:14.115Z,11.08
2024-02-10T20:01:41.174Z,11.08
2024-02-10T20:04:07.521Z,11.13
2024-02-10T20:06:34.063Z,11.03
2024-02-10T20:09:01.682Z,11.04
2024-02-10T20:11:28.231Z,11.04
2024-02-10T20:13:54.773Z,11.03
2024-02-10T20:16:21.120Z,11.02
2024-02-10T20:18:47.621Z,11.00
2024-02-10T20:21:14.038Z,10.98
2024-02-10T20:23:40.390Z,11.00
2024-02-10T20:26:13.741Z,10.98
2024-02-10T20:28:41.423Z,10.99
2024-02-10T20:31:14.962Z,11.02
2024-02-10T20:33:41.606Z,10.98
2024-02-10T20:36:08.346Z,10.99
2024-02-10T20:38:38.193Z,11.01
2024-02-10T20:41:04.745Z,11.03
2024-02-10T20:43:31.077Z,11.03
2024-02-10T20:45:57.489Z,11.05
2024-02-10T20:48:23.908Z,11.05
2024-02-10T20:50:50.290Z,11.03
2024-02-10T20:53:16.678Z,11.08
2024-02-10T20:55:43.172Z,11.10
2024-02-10T20:58:09.507Z,11.27
2024-02-10T21:00:36.099Z,11.26
2024-02-10T21:03:03.267Z,11.32
2024-02-10T21:05:31.372Z,11.27
2024-02-10T21:07:58.462Z,11.26
2024-02-10T21:10:24.863Z,11.18
2024-02-10T21:12:51.502Z,11.14
2024-02-10T21:15:18.170Z,11.16
2024-02-10T21:17:44.505Z,11.20
2024-02-10T21:20:11.208Z,11.30
2024-02-10T21:22:37.614Z,11.33
2024-02-10T21:25:04.311Z,11.46
2024-02-10T21:27:30.620Z,11.50
2024-02-10T21:29:56.947Z,11.64
2024-02-10T21:32:23.405Z,11.70
2024-02-10T21:34:49.834Z,11.57
2024-02-10T21:37:16.455Z,11.40
2024-02-10T21:39:42.837Z,11.38
2024-02-10T21:42:09.202Z,11.28
2024-02-10T21:44:35.521Z,11.19
2024-02-10T21:47:02.289Z,11.15
2024-02-10T21:49:28.717Z,11.17
2024-02-10T21:51:55.092Z,11.11
2024-02-10T21:54:21.415Z,11.15
2024-02-10T21:56:47.762Z,11.15
2024-02-10T21:59:14.190Z,11.04
2024-02-10T22:01:40.671Z,10.96
2024-02-10T22:04:07.231Z,10.93
2024-02-10T22:06:34.278Z,11.04
2024-02-10T22:09:00.605Z,10.94
2024-02-10T22:11:26.951Z,10.84
2024-02-10T22:13:53.349Z,10.97
2024-02-10T22:16:20.148Z,11.13
2024-02-10T22:18:46.506Z,11.10
2024-02-10T22:21:12.869Z,11.12
2024-02-10T22:23:39.210Z,10.93
2024-02-10T22:26:05.608Z,10.92
2024-02-10T22:28:32.014Z,10.95
2024-02-10T22:30:59.367Z,10.92
2024-02-10T22:33:25.830Z,10.79
2024-02-10T22:35:53.444Z,10.83
2024-02-10T22:38:20.364Z,10.78
2024-02-10T22:40:47.752Z,10.67
2024-02-10T22:43:15.045Z,10.73
2024-02-10T22:45:41.386Z,10.71
2024-02-10T22:48:07.891Z,10.62
2024-02-10T22:50:34.311Z,10.73
2024-02-10T22:53:00.643Z,10.68
2024-02-10T22:55:27.051Z,10.62
2024-02-10T22:57:53.429Z,10.58
2024-02-10T23:00:19.960Z,10.60
2024-02-10T23:02:46.799Z,10.54
2024-02-10T23:05:13.402Z,10.61
2024-02-10T23:07:39.889Z,10.79
2024-02-10T23:10:06.644Z,10.99
2024-02-10T23:12:33.015Z,10.93
2024-02-10T23:14:59.390Z,10.81
2024-02-10T23:17:25.727Z,10.81
2024-02-10T23:19:52.079Z,10.76
2024-02-10T23:22:19.163Z,10.81
2024-02-10T23:24:45.468Z,10.71
2024-02-10T23:27:11.828Z,10.63
2024-02-10T23:29:38.144Z,10.55
2024-02-10T23:32:05.096Z,10.53
2024-02-10T23:34:31.815Z,10.54
2024-02-10T23:36:58.185Z,10.50
2024-02-10T23:39:24.526Z,10.51
2024-02-10T23:41:50.934Z,10.54
2024-02-10T23:44:17.744Z,10.60
2024-02-10T23:46:44.181Z,10.55
2024-02-10T23:49:12.218Z,10.49
2024-02-10T23:51:38.606Z,10.42
2024-02-10T23:54:05.327Z,10.39
2024-02-10T23:56:31.660Z,10.39
2024-02-10T23:58:58.040Z,10.45
